sensor_id;sensor_type;location;lat;lon;timestamp;pressure;altitude;pressure_sealevel;temperature;humidity
15604;BME280;7902;49.042;9.092;2023-11-21T00:01:05;98477.47;;;12.74;66.22
15604;BME280;7902;49.042;9.092;2023-11-21T00:03:31;98488.25;;;12.71;66.06
15604;BME280;7902;49.042;9.092;2023-11-21T00:05:57;98481.59;;;12.67;66.02
15604;BME280;7902;49.042;9.092;2023-11-21T00:08:23;98475.50;;;12.67;66.38
15604;BME280;7902;49.042;9.092;2023-11-21T00:10:49;98477.47;;;12.65;66.16
15604;BME280;7902;49.042;9.092;2023-11-21T00:13:15;98471.06;;;12.67;66.26
15604;BME280;7902;49.042;9.092;2023-11-21T00:15:40;98469.56;;;12.65;66.73
15604;BME280;7902;49.042;9.092;2023-11-21T00:18:06;98465.25;;;12.64;67.00
15604;BME280;7902;49.042;9.092;2023-11-21T00:20:32;98471.34;;;12.64;66.28
15604;BME280;7902;49.042;9.092;2023-11-21T00:22:58;98472.31;;;12.63;66.78
15604;BME280;7902;49.042;9.092;2023-11-21T00:25:25;98471.66;;;12.61;66.69
15604;BME280;7902;49.042;9.092;2023-11-21T00:27:51;98468.31;;;12.50;67.34
15604;BME280;7902;49.042;9.092;2023-11-21T00:30:17;98455.25;;;12.48;67.42
15604;BME280;7902;49.042;9.092;2023-11-21T00:32:43;98451.66;;;12.49;67.28
15604;BME280;7902;49.042;9.092;2023-11-21T00:35:09;98449.16;;;12.48;67.41
15604;BME280;7902;49.042;9.092;2023-11-21T00:37:34;98446.69;;;12.46;67.46
15604;BME280;7902;49.042;9.092;2023-11-21T00:40:01;98447.38;;;12.48;67.49
15604;BME280;7902;49.042;9.092;2023-11-21T00:42:30;98440.88;;;12.52;67.24
15604;BME280;7902;49.042;9.092;2023-11-21T00:44:59;98451.13;;;12.55;66.83
15604;BME280;7902;49.042;9.092;2023-11-21T00:47:25;98447.53;;;12.47;67.06
15604;BME280;7902;49.042;9.092;2023-11-21T00:49:51;98455.84;;;12.42;67.65
15604;BME280;7902;49.042;9.092;2023-11-21T00:52:17;98457.22;;;12.46;66.84
15604;BME280;7902;49.042;9.092;2023-11-21T00:54:43;98470.41;;;12.46;67.52
15604;BME280;7902;49.042;9.092;2023-11-21T00:57:09;98462.06;;;12.51;67.09
15604;BME280;7902;49.042;9.092;2023-11-21T00:59:34;98468.19;;;12.42;67.50
15604;BME280;7902;49.042;9.092;2023-11-21T01:02:01;98462.19;;;12.40;67.41
15604;BME280;7902;49.042;9.092;2023-11-21T01:04:27;98473.84;;;12.37;67.48
15604;BME280;7902;49.042;9.092;2023-11-21T01:06:53;98459.97;;;12.25;67.63
15604;BME280;7902;49.042;9.092;2023-11-21T01:09:19;98457.63;;;12.32;67.65
15604;BME280;7902;49.042;9.092;2023-11-21T01:11:45;98454.47;;;12.38;67.45
15604;BME280;7902;49.042;9.092;2023-11-21T01:14:12;98455.56;;;12.36;67.64
15604;BME280;7902;49.042;9.092;2023-11-21T01:16:39;98461.66;;;12.36;68.31
15604;BME280;7902;49.042;9.092;2023-11-21T01:19:05;98456.38;;;12.36;67.45
15604;BME280;7902;49.042;9.092;2023-11-21T01:21:31;98456.81;;;12.31;67.42
15604;BME280;7902;49.042;9.092;2023-11-21T01:23:57;98459.97;;;12.35;67.60
15604;BME280;7902;49.042;9.092;2023-11-21T01:26:23;98468.00;;;12.33;67.91
15604;BME280;7902;49.042;9.092;2023-11-21T01:28:49;98461.94;;;12.33;68.13
15604;BME280;7902;49.042;9.092;2023-11-21T01:31:15;98464.69;;;12.31;68.06
15604;BME280;7902;49.042;9.092;2023-11-21T01:33:41;98458.31;;;12.34;67.92
15604;BME280;7902;49.042;9.092;2023-11-21T01:36:07;98451.97;;;12.37;67.75
15604;BME280;7902;49.042;9.092;2023-11-21T01:38:33;98455.44;;;12.37;67.88
15604;BME280;7902;49.042;9.092;2023-11-21T01:41:00;98458.19;;;12.26;67.55
15604;BME280;7902;49.042;9.092;2023-11-21T01:43:27;98452.22;;;12.43;67.47
15604;BME280;7902;49.042;9.092;2023-11-21T01:45:54;98456.94;;;12.30;67.86
15604;BME280;7902;49.042;9.092;2023-11-21T01:48:23;98455.00;;;12.32;67.73
15604;BME280;7902;49.042;9.092;2023-11-21T01:50:50;98456.38;;;12.36;67.68
15604;BME280;7902;49.042;9.092;2023-11-21T01:53:16;98451.13;;;12.36;67.66
15604;BME280;7902;49.042;9.092;2023-11-21T01:55:42;98458.91;;;12.38;67.42
15604;BME280;7902;49.042;9.092;2023-11-21T01:58:10;98455.84;;;12.42;67.41
15604;BME280;7902;49.042;9.092;2023-11-21T02:00:38;98456.94;;;12.40;67.37
15604;BME280;7902;49.042;9.092;2023-11-21T02:03:04;98459.72;;;12.38;67.11
15604;BME280;7902;49.042;9.092;2023-11-21T02:05:31;98453.88;;;12.44;67.40
15604;BME280;7902;49.042;9.092;2023-11-21T02:07:57;98454.47;;;12.38;67.73
15604;BME280;7902;49.042;9.092;2023-11-21T02:10:23;98452.78;;;12.47;67.21
15604;BME280;7902;49.042;9.092;2023-11-21T02:12:50;98449.75;;;12.42;67.43
15604;BME280;7902;49.042;9.092;2023-11-21T02:15:16;98458.06;;;12.37;67.67
15604;BME280;7902;49.042;9.092;2023-11-21T02:17:49;98456.94;;;12.40;67.52
15604;BME280;7902;49.042;9.092;2023-11-21T02:20:20;98460.53;;;12.39;67.51
15604;BME280;7902;49.042;9.092;2023-11-21T02:22:55;98461.53;;;12.38;67.84
15604;BME280;7902;49.042;9.092;2023-11-21T02:25:30;98464.84;;;12.40;67.52
15604;BME280;7902;49.042;9.092;2023-11-21T02:27:59;98459.31;;;12.43;67.70
15604;BME280;7902;49.042;9.092;2023-11-21T02:30:26;98450.16;;;12.47;67.56
15604;BME280;7902;49.042;9.092;2023-11-21T02:32:54;98455.00;;;12.51;67.29
15604;BME280;7902;49.042;9.092;2023-11-21T02:35:20;98454.59;;;12.46;67.51
15604;BME280;7902;49.042;9.092;2023-11-21T02:37:47;98456.69;;;12.43;67.41
15604;BME280;7902;49.042;9.092;2023-11-21T02:40:13;98459.56;;;12.40;67.60
15604;BME280;7902;49.042;9.092;2023-11-21T02:42:44;98455.97;;;12.50;67.33
15604;BME280;7902;49.042;9.092;2023-11-21T02:45:10;98443.78;;;12.49;67.20
15604;BME280;7902;49.042;9.092;2023-11-21T02:47:39;98450.28;;;12.45;67.61
15604;BME280;7902;49.042;9.092;2023-11-21T02:50:05;98455.44;;;12.47;66.94
15604;BME280;7902;49.042;9.092;2023-11-21T02:52:34;98450.00;;;12.48;67.50
15604;BME280;7902;49.042;9.092;2023-11-21T02:55:04;98444.75;;;12.48;67.58
15604;BME280;7902;49.042;9.092;2023-11-21T02:57:30;98448.06;;;12.50;67.61
15604;BME280;7902;49.042;9.092;2023-11-21T02:59:56;98445.31;;;12.52;67.37
15604;BME280;7902;49.042;9.092;2023-11-21T03:02:22;98450.00;;;12.48;67.59
15604;BME280;7902;49.042;9.092;2023-11-21T03:04:48;98441.97;;;12.40;68.38
15604;BME280;7902;49.042;9.092;2023-11-21T03:07:15;98448.38;;;12.47;67.82
15604;BME280;7902;49.042;9.092;2023-11-21T03:09:41;98451.41;;;12.43;67.78
15604;BME280;7902;49.042;9.092;2023-11-21T03:12:07;98460.28;;;12.42;67.84
15604;BME280;7902;49.042;9.092;2023-11-21T03:14:34;98448.78;;;12.52;67.33
15604;BME280;7902;49.042;9.092;2023-11-21T03:17:00;98451.66;;;12.49;67.65
15604;BME280;7902;49.042;9.092;2023-11-21T03:19:26;98453.75;;;12.55;67.49
15604;BME280;7902;49.042;9.092;2023-11-21T03:21:52;98451.41;;;12.52;67.49
15604;BME280;7902;49.042;9.092;2023-11-21T03:24:19;98447.78;;;12.53;67.48
15604;BME280;7902;49.042;9.092;2023-11-21T03:26:46;98453.47;;;12.58;67.45
15604;BME280;7902;49.042;9.092;2023-11-21T03:29:14;98450.28;;;12.64;67.12
15604;BME280;7902;49.042;9.092;2023-11-21T03:31:40;98456.25;;;12.57;67.43
15604;BME280;7902;49.042;9.092;2023-11-21T03:34:09;98458.47;;;12.71;67.21
15604;BME280;7902;49.042;9.092;2023-11-21T03:36:35;98460.53;;;12.58;67.61
15604;BME280;7902;49.042;9.092;2023-11-21T03:39:02;98462.50;;;12.56;67.78
15604;BME280;7902;49.042;9.092;2023-11-21T03:41:28;98452.63;;;12.48;67.99
15604;BME280;7902;49.042;9.092;2023-11-21T03:43:54;98462.22;;;12.49;67.65
15604;BME280;7902;49.042;9.092;2023-11-21T03:46:20;98461.13;;;12.52;67.98
15604;BME280;7902;49.042;9.092;2023-11-21T03:48:45;98459.88;;;12.56;67.54
15604;BME280;7902;49.042;9.092;2023-11-21T03:51:11;98457.22;;;12.56;67.53
15604;BME280;7902;49.042;9.092;2023-11-21T03:53:37;98461.38;;;12.58;67.61
15604;BME280;7902;49.042;9.092;2023-11-21T03:56:03;98456.25;;;12.57;67.98
15604;BME280;7902;49.042;9.092;2023-11-21T03:58:30;98468.59;;;12.56;67.87
15604;BME280;7902;49.042;9.092;2023-11-21T04:00:55;98464.41;;;12.54;68.12
15604;BME280;7902;49.042;9.092;2023-11-21T04:03:21;98470.22;;;12.57;68.06
15604;BME280;7902;49.042;9.092;2023-11-21T04:05:47;98472.19;;;12.65;67.91
15604;BME280;7902;49.042;9.092;2023-11-21T04:08:13;98471.06;;;12.67;67.59
15604;BME280;7902;49.042;9.092;2023-11-21T04:10:39;98470.53;;;12.64;67.75
15604;BME280;7902;49.042;9.092;2023-11-21T04:13:05;98470.66;;;12.62;67.90
15604;BME280;7902;49.042;9.092;2023-11-21T04:15:32;98472.31;;;12.63;67.44
15604;BME280;7902;49.042;9.092;2023-11-21T04:17:58;98465.53;;;12.61;67.72
15604;BME280;7902;49.042;9.092;2023-11-21T04:20:24;98478.56;;;12.62;67.75
15604;BME280;7902;49.042;9.092;2023-11-21T04:22:50;98479.81;;;12.58;67.78
15604;BME280;7902;49.042;9.092;2023-11-21T04:25:16;98480.78;;;12.57;67.62
15604;BME280;7902;49.042;9.092;2023-11-21T04:27:43;98475.38;;;12.49;68.22
15604;BME280;7902;49.042;9.092;2023-11-21T04:30:11;98477.47;;;12.46;68.73
15604;BME280;7902;49.042;9.092;2023-11-21T04:32:37;98469.97;;;12.51;68.47
15604;BME280;7902;49.042;9.092;2023-11-21T04:35:03;98477.16;;;12.49;67.94
15604;BME280;7902;49.042;9.092;2023-11-21T04:37:29;98475.50;;;12.48;68.50
15604;BME280;7902;49.042;9.092;2023-11-21T04:39:55;98479.81;;;12.49;68.63
15604;BME280;7902;49.042;9.092;2023-11-21T04:42:21;98481.88;;;12.45;68.74
15604;BME280;7902;49.042;9.092;2023-11-21T04:44:48;98486.88;;;12.48;68.67
15604;BME280;7902;49.042;9.092;2023-11-21T04:47:14;98490.34;;;12.49;68.72
15604;BME280;7902;49.042;9.092;2023-11-21T04:49:43;98478.28;;;12.46;69.29
15604;BME280;7902;49.042;9.092;2023-11-21T04:52:09;98478.72;;;12.42;69.30
15604;BME280;7902;49.042;9.092;2023-11-21T04:54:35;98483.13;;;12.41;69.29
15604;BME280;7902;49.042;9.092;2023-11-21T04:57:01;98488.94;;;12.35;69.41
15604;BME280;7902;49.042;9.092;2023-11-21T04:59:27;98479.38;;;12.34;69.34
15604;BME280;7902;49.042;9.092;2023-11-21T05:01:53;98481.47;;;12.40;69.32
15604;BME280;7902;49.042;9.092;2023-11-21T05:04:20;98488.25;;;12.33;69.30
15604;BME280;7902;49.042;9.092;2023-11-21T05:06:48;98488.94;;;12.35;69.48
15604;BME280;7902;49.042;9.092;2023-11-21T05:09:14;98491.56;;;12.35;69.79
15604;BME280;7902;49.042;9.092;2023-11-21T05:11:41;98485.66;;;12.43;69.76
15604;BME280;7902;49.042;9.092;2023-11-21T05:14:07;98490.50;;;12.47;69.06
15604;BME280;7902;49.042;9.092;2023-11-21T05:16:34;98483.56;;;12.46;69.03
15604;BME280;7902;49.042;9.092;2023-11-21T05:19:01;98479.38;;;12.44;69.59
15604;BME280;7902;49.042;9.092;2023-11-21T05:21:27;98494.34;;;12.53;68.87
15604;BME280;7902;49.042;9.092;2023-11-21T05:23:55;98499.34;;;12.46;69.23
15604;BME280;7902;49.042;9.092;2023-11-21T05:26:21;98495.47;;;12.50;69.50
15604;BME280;7902;49.042;9.092;2023-11-21T05:28:47;98503.09;;;12.53;68.90
15604;BME280;7902;49.042;9.092;2023-11-21T05:31:13;98501.03;;;12.57;68.65
15604;BME280;7902;49.042;9.092;2023-11-21T05:33:40;98502.00;;;12.46;69.19
15604;BME280;7902;49.042;9.092;2023-11-21T05:36:07;98511.56;;;12.47;69.40
15604;BME280;7902;49.042;9.092;2023-11-21T05:38:34;98512.13;;;12.60;68.55
15604;BME280;7902;49.042;9.092;2023-11-21T05:41:01;98512.66;;;12.54;68.97
15604;BME280;7902;49.042;9.092;2023-11-21T05:43:27;98508.66;;;12.60;68.84
15604;BME280;7902;49.042;9.092;2023-11-21T05:45:55;98517.38;;;12.60;68.74
15604;BME280;7902;49.042;9.092;2023-11-21T05:48:21;98518.75;;;12.55;69.10
15604;BME280;7902;49.042;9.092;2023-11-21T05:50:47;98526.13;;;12.51;69.27
15604;BME280;7902;49.042;9.092;2023-11-21T05:53:15;98526.78;;;12.53;69.14
15604;BME280;7902;49.042;9.092;2023-11-21T05:55:42;98531.63;;;12.58;68.77
15604;BME280;7902;49.042;9.092;2023-11-21T05:58:08;98533.31;;;12.68;68.38
15604;BME280;7902;49.042;9.092;2023-11-21T06:00:34;98538.44;;;12.60;68.68
15604;BME280;7902;49.042;9.092;2023-11-21T06:03:00;98551.22;;;12.65;68.68
15604;BME280;7902;49.042;9.092;2023-11-21T06:05:26;98545.94;;;12.65;68.13
15604;BME280;7902;49.042;9.092;2023-11-21T06:07:53;98547.88;;;12.63;68.45
15604;BME280;7902;49.042;9.092;2023-11-21T06:10:21;98550.50;;;12.72;68.36
15604;BME280;7902;49.042;9.092;2023-11-21T06:12:47;98557.44;;;12.73;68.00
15604;BME280;7902;49.042;9.092;2023-11-21T06:15:13;98559.25;;;12.73;68.20
15604;BME280;7902;49.042;9.092;2023-11-21T06:17:44;98557.59;;;12.82;68.03
15604;BME280;7902;49.042;9.092;2023-11-21T06:20:15;98562.84;;;12.72;68.19
15604;BME280;7902;49.042;9.092;2023-11-21T06:22:42;98560.63;;;12.67;68.37
15604;BME280;7902;49.042;9.092;2023-11-21T06:25:08;98572.81;;;12.68;68.50
15604;BME280;7902;49.042;9.092;2023-11-21T06:27:38;98568.97;;;12.82;68.35
15604;BME280;7902;49.042;9.092;2023-11-21T06:30:05;98568.94;;;12.72;67.92
15604;BME280;7902;49.042;9.092;2023-11-21T06:32:32;98564.25;;;12.66;69.16
15604;BME280;7902;49.042;9.092;2023-11-21T06:34:58;98568.94;;;12.72;68.46
15604;BME280;7902;49.042;9.092;2023-11-21T06:37:28;98569.78;;;12.73;68.48
15604;BME280;7902;49.042;9.092;2023-11-21T06:39:54;98572.28;;;12.74;68.49
15604;BME280;7902;49.042;9.092;2023-11-21T06:42:22;98581.16;;;12.73;68.63
15604;BME280;7902;49.042;9.092;2023-11-21T06:44:49;98581.56;;;12.79;68.52
15604;BME280;7902;49.042;9.092;2023-11-21T06:47:17;98584.22;;;12.79;68.43
15604;BME280;7902;49.042;9.092;2023-11-21T06:49:46;98591.69;;;12.73;69.04
15604;BME280;7902;49.042;9.092;2023-11-21T06:52:15;98590.97;;;12.71;69.02
15604;BME280;7902;49.042;9.092;2023-11-21T06:54:41;98592.81;;;12.71;68.89
15604;BME280;7902;49.042;9.092;2023-11-21T06:57:06;98596.41;;;12.70;68.72
15604;BME280;7902;49.042;9.092;2023-11-21T06:59:33;98594.03;;;12.67;68.90
15604;BME280;7902;49.042;9.092;2023-11-21T07:01:59;98598.22;;;12.69;68.92
15604;BME280;7902;49.042;9.092;2023-11-21T07:04:25;98607.78;;;12.70;69.08
15604;BME280;7902;49.042;9.092;2023-11-21T07:06:54;98605.56;;;12.66;69.09
15604;BME280;7902;49.042;9.092;2023-11-21T07:09:20;98610.41;;;12.70;68.87
15604;BME280;7902;49.042;9.092;2023-11-21T07:11:49;98607.94;;;12.79;68.57
15604;BME280;7902;49.042;9.092;2023-11-21T07:14:15;98612.63;;;12.75;68.63
15604;BME280;7902;49.042;9.092;2023-11-21T07:16:42;98612.22;;;12.80;68.56
15604;BME280;7902;49.042;9.092;2023-11-21T07:19:08;98614.16;;;12.77;68.53
15604;BME280;7902;49.042;9.092;2023-11-21T07:21:35;98625.53;;;12.78;68.95
15604;BME280;7902;49.042;9.092;2023-11-21T07:24:04;98623.44;;;12.82;68.18
15604;BME280;7902;49.042;9.092;2023-11-21T07:26:32;98634.00;;;12.82;68.62
15604;BME280;7902;49.042;9.092;2023-11-21T07:28:59;98636.38;;;12.85;68.46
15604;BME280;7902;49.042;9.092;2023-11-21T07:31:26;98636.63;;;12.91;68.28
15604;BME280;7902;49.042;9.092;2023-11-21T07:33:52;98638.44;;;12.91;68.50
15604;BME280;7902;49.042;9.092;2023-11-21T07:36:21;98640.13;;;13.01;68.46
15604;BME280;7902;49.042;9.092;2023-11-21T07:38:47;98643.16;;;12.97;68.23
15604;BME280;7902;49.042;9.092;2023-11-21T07:41:13;98649.56;;;12.94;68.31
15604;BME280;7902;49.042;9.092;2023-11-21T07:43:44;98649.41;;;12.96;68.81
15604;BME280;7902;49.042;9.092;2023-11-21T07:46:11;98648.84;;;13.02;68.46
15604;BME280;7902;49.042;9.092;2023-11-21T07:48:41;98646.75;;;12.96;68.96
15604;BME280;7902;49.042;9.092;2023-11-21T07:51:08;98652.44;;;12.91;69.06
15604;BME280;7902;49.042;9.092;2023-11-21T07:53:35;98651.06;;;12.87;68.93
15604;BME280;7902;49.042;9.092;2023-11-21T07:56:05;98652.75;;;12.98;68.39
15604;BME280;7902;49.042;9.092;2023-11-21T07:58:32;98660.38;;;13.01;68.66
15604;BME280;7902;49.042;9.092;2023-11-21T08:01:02;98656.06;;;13.00;69.05
15604;BME280;7902;49.042;9.092;2023-11-21T08:03:28;98667.59;;;12.99;68.64
15604;BME280;7902;49.042;9.092;2023-11-21T08:05:57;98660.78;;;12.96;69.25
15604;BME280;7902;49.042;9.092;2023-11-21T08:08:24;98660.66;;;13.07;68.73
15604;BME280;7902;49.042;9.092;2023-11-21T08:10:50;98675.34;;;13.10;67.78
15604;BME280;7902;49.042;9.092;2023-11-21T08:13:26;98672.16;;;13.06;68.77
15604;BME280;7902;49.042;9.092;2023-11-21T08:15:57;98663.88;;;13.11;68.16
15604;BME280;7902;49.042;9.092;2023-11-21T08:18:27;98672.22;;;13.16;67.80
15604;BME280;7902;49.042;9.092;2023-11-21T08:20:57;98672.28;;;13.05;68.18
15604;BME280;7902;49.042;9.092;2023-11-21T08:23:23;98670.78;;;13.02;68.46
15604;BME280;7902;49.042;9.092;2023-11-21T08:25:53;98673.00;;;13.07;68.63
15604;BME280;7902;49.042;9.092;2023-11-21T08:28:19;98672.72;;;13.10;68.35
15604;BME280;7902;49.042;9.092;2023-11-21T08:30:49;98664.38;;;13.05;68.94
15604;BME280;7902;49.042;9.092;2023-11-21T08:33:14;98668.31;;;13.20;68.35
15604;BME280;7902;49.042;9.092;2023-11-21T08:35:40;98676.78;;;13.24;68.14
15604;BME280;7902;49.042;9.092;2023-11-21T08:38:06;98674.13;;;13.14;68.35
15604;BME280;7902;49.042;9.092;2023-11-21T08:40:34;98684.44;;;13.17;67.68
15604;BME280;7902;49.042;9.092;2023-11-21T08:43:00;98682.88;;;13.24;68.03
15604;BME280;7902;49.042;9.092;2023-11-21T08:45:26;98688.75;;;13.28;67.57
15604;BME280;7902;49.042;9.092;2023-11-21T08:47:52;98685.81;;;13.31;67.39
15604;BME280;7902;49.042;9.092;2023-11-21T08:50:18;98689.28;;;13.31;67.21
15604;BME280;7902;49.042;9.092;2023-11-21T08:52:45;98690.81;;;13.34;67.30
15604;BME280;7902;49.042;9.092;2023-11-21T08:55:14;98690.97;;;13.32;66.74
15604;BME280;7902;49.042;9.092;2023-11-21T08:57:41;98697.75;;;13.25;67.93
15604;BME280;7902;49.042;9.092;2023-11-21T09:00:09;98695.25;;;13.33;67.66
15604;BME280;7902;49.042;9.092;2023-11-21T09:02:43;98693.31;;;13.35;68.90
15604;BME280;7902;49.042;9.092;2023-11-21T09:05:11;98698.47;;;13.37;67.50
15604;BME280;7902;49.042;9.092;2023-11-21T09:07:38;98698.31;;;13.38;68.47
15604;BME280;7902;49.042;9.092;2023-11-21T09:10:05;98696.91;;;13.44;68.60
15604;BME280;7902;49.042;9.092;2023-11-21T09:12:34;98703.03;;;13.44;68.12
15604;BME280;7902;49.042;9.092;2023-11-21T09:15:07;98702.75;;;13.38;68.42
15604;BME280;7902;49.042;9.092;2023-11-21T09:17:35;98710.66;;;13.47;68.70
15604;BME280;7902;49.042;9.092;2023-11-21T09:20:01;98708.59;;;13.41;68.30
15604;BME280;7902;49.042;9.092;2023-11-21T09:22:29;98722.88;;;13.48;68.93
15604;BME280;7902;49.042;9.092;2023-11-21T09:24:55;98716.50;;;13.51;68.00
15604;BME280;7902;49.042;9.092;2023-11-21T09:27:23;98723.44;;;13.52;68.58
15604;BME280;7902;49.042;9.092;2023-11-21T09:29:49;98725.09;;;13.43;68.51
15604;BME280;7902;49.042;9.092;2023-11-21T09:32:15;98728.84;;;13.41;69.11
15604;BME280;7902;49.042;9.092;2023-11-21T09:34:42;98736.63;;;13.61;67.55
15604;BME280;7902;49.042;9.092;2023-11-21T09:37:08;98737.31;;;13.63;68.14
15604;BME280;7902;49.042;9.092;2023-11-21T09:39:34;98747.75;;;13.55;67.29
15604;BME280;7902;49.042;9.092;2023-11-21T09:42:17;98738.84;;;13.56;67.82
15604;BME280;7902;49.042;9.092;2023-11-21T09:45:10;98742.19;;;13.58;67.35
15604;BME280;7902;49.042;9.092;2023-11-21T09:47:39;98743.03;;;13.59;68.14
15604;BME280;7902;49.042;9.092;2023-11-21T09:50:05;98738.16;;;13.54;68.67
15604;BME280;7902;49.042;9.092;2023-11-21T09:52:49;98746.91;;;13.65;68.20
15604;BME280;7902;49.042;9.092;2023-11-21T09:55:18;98744.53;;;13.61;67.89
15604;BME280;7902;49.042;9.092;2023-11-21T09:57:49;98745.25;;;13.54;68.91
15604;BME280;7902;49.042;9.092;2023-11-21T10:00:16;98747.16;;;13.61;69.22
15604;BME280;7902;49.042;9.092;2023-11-21T10:02:44;98748.84;;;13.62;69.25
15604;BME280;7902;49.042;9.092;2023-11-21T10:05:10;98739.66;;;13.67;67.76
15604;BME280;7902;49.042;9.092;2023-11-21T10:07:39;98744.69;;;13.70;68.58
15604;BME280;7902;49.042;9.092;2023-11-21T10:10:07;98745.66;;;13.69;67.90
15604;BME280;7902;49.042;9.092;2023-11-21T10:12:35;98750.50;;;13.83;66.65
15604;BME280;7902;49.042;9.092;2023-11-21T10:15:02;98750.53;;;13.73;67.21
15604;BME280;7902;49.042;9.092;2023-11-21T10:17:31;98755.38;;;13.68;67.38
15604;BME280;7902;49.042;9.092;2023-11-21T10:20:06;98751.19;;;13.75;67.27
15604;BME280;7902;49.042;9.092;2023-11-21T10:22:41;98747.47;;;13.78;67.13
15604;BME280;7902;49.042;9.092;2023-11-21T10:25:10;98741.22;;;13.79;67.88
15604;BME280;7902;49.042;9.092;2023-11-21T10:27:37;98739.97;;;13.83;67.23
15604;BME280;7902;49.042;9.092;2023-11-21T10:30:06;98750.22;;;13.86;67.73
15604;BME280;7902;49.042;9.092;2023-11-21T10:32:32;98761.31;;;13.80;67.55
15604;BME280;7902;49.042;9.092;2023-11-21T10:34:59;98748.84;;;13.82;67.88
15604;BME280;7902;49.042;9.092;2023-11-21T10:37:32;98752.19;;;13.93;67.46
15604;BME280;7902;49.042;9.092;2023-11-21T10:39:58;98759.94;;;13.95;67.25
15604;BME280;7902;49.042;9.092;2023-11-21T10:42:25;98756.47;;;13.85;67.72
15604;BME280;7902;49.042;9.092;2023-11-21T10:44:51;98759.38;;;13.91;67.59
15604;BME280;7902;49.042;9.092;2023-11-21T10:47:17;98754.94;;;13.92;67.34
15604;BME280;7902;49.042;9.092;2023-11-21T10:49:45;98756.47;;;13.94;66.97
15604;BME280;7902;49.042;9.092;2023-11-21T10:52:13;98762.56;;;13.95;66.63
15604;BME280;7902;49.042;9.092;2023-11-21T10:54:43;98759.69;;;13.98;66.62
15604;BME280;7902;49.042;9.092;2023-11-21T10:57:10;98761.72;;;14.04;66.99
15604;BME280;7902;49.042;9.092;2023-11-21T10:59:41;98754.66;;;13.95;66.67
15604;BME280;7902;49.042;9.092;2023-11-21T11:02:23;98757.16;;;13.96;66.83
15604;BME280;7902;49.042;9.092;2023-11-21T11:04:54;98764.78;;;13.99;67.31
15604;BME280;7902;49.042;9.092;2023-11-21T11:07:26;98762.56;;;14.04;65.88
15604;BME280;7902;49.042;9.092;2023-11-21T11:09:54;98758.41;;;14.02;66.64
15604;BME280;7902;49.042;9.092;2023-11-21T11:12:21;98757.72;;;14.00;66.74
15604;BME280;7902;49.042;9.092;2023-11-21T11:14:48;98755.63;;;14.03;66.57
15604;BME280;7902;49.042;9.092;2023-11-21T11:17:14;98761.47;;;14.07;66.82
15604;BME280;7902;49.042;9.092;2023-11-21T11:19:40;98760.47;;;14.08;67.60
15604;BME280;7902;49.042;9.092;2023-11-21T11:22:24;98761.16;;;14.10;66.35
15604;BME280;7902;49.042;9.092;2023-11-21T11:25:13;98760.09;;;14.03;66.25
15604;BME280;7902;49.042;9.092;2023-11-21T11:27:47;98769.25;;;13.99;66.62
15604;BME280;7902;49.042;9.092;2023-11-21T11:33:33;98773.28;;;14.03;66.93
15604;BME280;7902;49.042;9.092;2023-11-21T11:38:32;98772.44;;;14.02;66.93
15604;BME280;7902;49.042;9.092;2023-11-21T11:41:02;98769.94;;;14.11;67.47
15604;BME280;7902;49.042;9.092;2023-11-21T11:43:30;98777.97;;;14.09;67.25
15604;BME280;7902;49.042;9.092;2023-11-21T11:45:59;98778.00;;;13.99;67.44
15604;BME280;7902;49.042;9.092;2023-11-21T11:48:25;98780.63;;;13.90;68.04
15604;BME280;7902;49.042;9.092;2023-11-21T11:51:05;98785.78;;;14.01;67.58
15604;BME280;7902;49.042;9.092;2023-11-21T11:53:39;98789.38;;;14.00;67.30
15604;BME280;7902;49.042;9.092;2023-11-21T11:56:27;98786.63;;;14.01;68.02
15604;BME280;7902;49.042;9.092;2023-11-21T11:58:56;98792.88;;;14.00;68.07
15604;BME280;7902;49.042;9.092;2023-11-21T12:01:24;98781.75;;;13.97;67.49
15604;BME280;7902;49.042;9.092;2023-11-21T12:06:42;98787.72;;;13.99;68.21
15604;BME280;7902;49.042;9.092;2023-11-21T12:09:19;98791.47;;;13.96;67.53
15604;BME280;7902;49.042;9.092;2023-11-21T12:11:48;98790.66;;;13.96;67.40
15604;BME280;7902;49.042;9.092;2023-11-21T12:14:14;98792.56;;;13.94;68.28
15604;BME280;7902;49.042;9.092;2023-11-21T12:16:42;98796.88;;;13.95;68.02
15604;BME280;7902;49.042;9.092;2023-11-21T12:19:10;98795.22;;;13.94;68.30
15604;BME280;7902;49.042;9.092;2023-11-21T12:21:36;98797.59;;;13.87;68.08
15604;BME280;7902;49.042;9.092;2023-11-21T12:24:02;98793.16;;;13.88;67.46
15604;BME280;7902;49.042;9.092;2023-11-21T12:26:28;98800.50;;;13.94;68.07
15604;BME280;7902;49.042;9.092;2023-11-21T12:28:54;98804.56;;;13.98;68.21
15604;BME280;7902;49.042;9.092;2023-11-21T12:31:24;98801.91;;;13.88;67.33
15604;BME280;7902;49.042;9.092;2023-11-21T12:33:50;98806.34;;;13.97;67.93
15604;BME280;7902;49.042;9.092;2023-11-21T12:36:16;98812.47;;;13.98;67.26
15604;BME280;7902;49.042;9.092;2023-11-21T12:38:42;98815.38;;;13.95;68.28
15604;BME280;7902;49.042;9.092;2023-11-21T12:41:11;98811.34;;;13.91;66.33
15604;BME280;7902;49.042;9.092;2023-11-21T12:43:37;98811.22;;;13.92;67.73
15604;BME280;7902;49.042;9.092;2023-11-21T12:46:10;98813.56;;;13.95;66.67
15604;BME280;7902;49.042;9.092;2023-11-21T12:48:40;98809.66;;;13.99;67.86
15604;BME280;7902;49.042;9.092;2023-11-21T12:51:10;98812.47;;;13.98;67.44
15604;BME280;7902;49.042;9.092;2023-11-21T12:53:40;98808.84;;;13.99;67.73
15604;BME280;7902;49.042;9.092;2023-11-21T12:56:11;98809.41;;;14.02;68.06
15604;BME280;7902;49.042;9.092;2023-11-21T12:58:38;98823.16;;;14.06;67.43
15604;BME280;7902;49.042;9.092;2023-11-21T13:01:08;98813.00;;;14.01;68.71
15604;BME280;7902;49.042;9.092;2023-11-21T13:03:38;98811.88;;;13.85;68.85
15604;BME280;7902;49.042;9.092;2023-11-21T13:06:05;98819.38;;;13.99;67.72
15604;BME280;7902;49.042;9.092;2023-11-21T13:08:33;98823.88;;;13.89;68.10
15604;BME280;7902;49.042;9.092;2023-11-21T13:10:59;98818.00;;;13.85;68.31
15604;BME280;7902;49.042;9.092;2023-11-21T13:13:27;98828.00;;;13.91;67.37
15604;BME280;7902;49.042;9.092;2023-11-21T13:16:01;98830.25;;;13.96;67.00
15604;BME280;7902;49.042;9.092;2023-11-21T13:18:30;98834.69;;;13.86;67.36
15604;BME280;7902;49.042;9.092;2023-11-21T13:21:02;98835.38;;;13.88;67.67